WLBY18 YAMB-YROM
Flight info
| Callsign | WLBY18 |
|---|---|
| Flight time | N/A |
| Altitude | 18000 |
| Route | MESED Q484 ROM |
| Aircraft | C27J/M-SDFGHIRTUY/S |
Departure
| Time | 2026-05-04 02:58 |
|---|---|
| Airport | RAAF Base Amberley (YAMB) |
Arrival
| Time | N/A |
|---|---|
| Airport | Roma Airport (YROM) |
| Time | Latitude | Longitude | Altitude | Speed | Heading |
|---|---|---|---|---|---|
| 2026-05-04 02:55 | -27.64690 | 152.71627 | 99 ft | 0 kts | 339° |
| 2026-05-04 02:57 | -27.64644 | 152.71605 | 99 ft | 31 kts | 336° |
| 2026-05-04 02:57 | -27.64195 | 152.71408 | 100 ft | 106 kts | 340° |
| 2026-05-04 02:57 | -27.63315 | 152.71033 | 193 ft | 156 kts | 339° |
| 2026-05-04 02:58 | -27.62221 | 152.70543 | 645 ft | 177 kts | 337° |
| 2026-05-04 02:58 | -27.61105 | 152.69914 | 1238 ft | 191 kts | 329° |
| 2026-05-04 02:58 | -27.60101 | 152.68763 | 1434 ft | 222 kts | 300° |
| 2026-05-04 02:58 | -27.59662 | 152.67056 | 1726 ft | 238 kts | 278° |
| 2026-05-04 02:59 | -27.59498 | 152.65151 | 1992 ft | 248 kts | 275° |
| 2026-05-04 02:59 | -27.59324 | 152.63201 | 2246 ft | 252 kts | 277° |
| 2026-05-04 02:59 | -27.59041 | 152.61231 | 2504 ft | 256 kts | 282° |
| 2026-05-04 02:59 | -27.58644 | 152.59272 | 2756 ft | 258 kts | 285° |
| 2026-05-04 03:00 | -27.58150 | 152.57313 | 3012 ft | 260 kts | 288° |
| 2026-05-04 03:00 | -27.57587 | 152.55377 | 3304 ft | 260 kts | 290° |
| 2026-05-04 03:00 | -27.56973 | 152.53445 | 3601 ft | 262 kts | 291° |
| 2026-05-04 03:00 | -27.56323 | 152.51522 | 3884 ft | 263 kts | 292° |
| 2026-05-04 03:01 | -27.55654 | 152.49619 | 4178 ft | 265 kts | 293° |
| 2026-05-04 03:01 | -27.54953 | 152.47688 | 4469 ft | 266 kts | 294° |
| 2026-05-04 03:01 | -27.54236 | 152.45758 | 4760 ft | 267 kts | 294° |
| 2026-05-04 03:01 | -27.53510 | 152.43830 | 5052 ft | 267 kts | 295° |
| 2026-05-04 03:02 | -27.52776 | 152.41900 | 5356 ft | 268 kts | 295° |
| 2026-05-04 03:02 | -27.52038 | 152.39965 | 5656 ft | 270 kts | 295° |
| 2026-05-04 03:02 | -27.51293 | 152.38017 | 5960 ft | 271 kts | 295° |
| 2026-05-04 03:02 | -27.50547 | 152.36067 | 6264 ft | 272 kts | 295° |
| 2026-05-04 03:03 | -27.49806 | 152.34130 | 6560 ft | 273 kts | 295° |
| 2026-05-04 03:03 | -27.49049 | 152.32160 | 6867 ft | 274 kts | 295° |
| 2026-05-04 03:03 | -27.48288 | 152.30189 | 7170 ft | 275 kts | 295° |
| 2026-05-04 03:03 | -27.47523 | 152.28212 | 7468 ft | 276 kts | 295° |
| 2026-05-04 03:04 | -27.46754 | 152.26227 | 7769 ft | 277 kts | 295° |
| 2026-05-04 03:04 | -27.46494 | 152.25553 | 7871 ft | 277 kts | 295° |